PROFILE

 METAR AND TAF INFORMATION
ADDS - METARS form results

(1510 UTC 22 January 2019)
http://aviationweather.gov/metar/data/
 
TAF DGAA 221103Z 2212/2318 19015KT 5000 HZ SCT020 BECMG 2214/2216 8000 BECMG 2300/2302 28008KT CAVOK BECMG 2305/2307 3000 BR BECMG 2309/2311 19015KT 5000 HZ 

 AIRPORT MAP

 RUNWAY INFORMATION
Runway 03 Runway length 11165 ft Runway width 200 ft
Runway elevation 177 ft Runway displaced threshold 0 ft Runway heading 22
Runway 21 Runway length 11165 ft Runway width 200 ft
Runway elevation 197 ft Runway displaced threshold 1349 ft Runway heading 202

 AIRPORT FREQUENCIES
Type APP Name ACCRA APP Frequency 119.5 MHZ
Type GND Name ACCRA GND Frequency 121.9 MHZ
Type TWR Name ACCRA TWR Frequency 119.1 MHZ

 AIRPORT NEAR NAVIGATION AIDS
Type NDB Name Accra Frequency 409 KHZ
Type VOR-DME Name Accra Frequency 113100 KHZ